CheckWX is a tool to help pilots better visualize weather data.  It is not intended as a substitute for an official pre-flight weather briefing.

21:44:22 UTC

KGRI TAF
Central Nebraska Regional Airport
Grand Island, Nebraska, USA
KGRI 042334Z 0500/0524 15010KT P6SM SKC FM050600 17007KT P6SM SKC FM051200 17007KT P6SM SCT150 FM051900 16015G23KT P6SM SCT250 FM052300 17015G25KT P6SM SCT150

Apr-5@
00:00 UTC

Apr-5 @ 00:00 UTC

Apr-5@
06:00 UTC

Apr-5 @ 06:00 UTC

TAF KGRI 042334Z 0500/0524 15010KT P6SM SKC

Expired

Wind
  • 150° at 10 KTS
Cloud Levels
  • Clear skies

Apr-5@
06:00 UTC

Apr-5 @ 06:00 UTC

Apr-5@
12:00 UTC

Apr-5 @ 12:00 UTC

FM050600 17007KT P6SM SKC

Expired

Wind
  • 170° at 7 KTS
Cloud Levels
  • Clear skies

Apr-5@
12:00 UTC

Apr-5 @ 12:00 UTC

Apr-5@
19:00 UTC

Apr-5 @ 19:00 UTC

FM051200 17007KT P6SM SCT150

Expired

Wind
  • 170° at 7 KTS
Cloud Levels
  • Scattered at 15,000' AGL

Apr-5@
19:00 UTC

Apr-5 @ 19:00 UTC

Apr-5@
23:00 UTC

Apr-5 @ 23:00 UTC

FM051900 16015G23KT P6SM SCT250

From

From Standard forecast or significant change

Wind
  • 160° at 15 KTS
  • {Gusting to 23 KTS
Cloud Levels
  • Scattered at 25,000' AGL

Apr-5@
23:00 UTC

Apr-5 @ 23:00 UTC

Apr-6@
00:00 UTC

Apr-6 @ 00:00 UTC

FM052300 17015G25KT P6SM SCT150

From

From Standard forecast or significant change

Wind
  • 170° at 15 KTS
  • {Gusting to 25 KTS
Cloud Levels
  • Scattered at 15,000' AGL